sensor_id;sensor_type;location;lat;lon;timestamp;temperature;humidity
17200;DHT22;8716;52.268;20.968;2023-12-28T00:00:54;2.80;99.90
17200;DHT22;8716;52.268;20.968;2023-12-28T00:03:23;2.90;99.90
17200;DHT22;8716;52.268;20.968;2023-12-28T00:05:51;2.90;99.90
17200;DHT22;8716;52.268;20.968;2023-12-28T00:08:21;2.80;99.90
17200;DHT22;8716;52.268;20.968;2023-12-28T00:10:49;2.90;99.90
17200;DHT22;8716;52.268;20.968;2023-12-28T00:13:17;2.80;99.90
17200;DHT22;8716;52.268;20.968;2023-12-28T00:15:46;2.90;99.90
17200;DHT22;8716;52.268;20.968;2023-12-28T00:18:14;2.90;99.90
17200;DHT22;8716;52.268;20.968;2023-12-28T00:20:44;2.90;99.90
17200;DHT22;8716;52.268;20.968;2023-12-28T00:23:13;2.90;99.90
17200;DHT22;8716;52.268;20.968;2023-12-28T00:25:42;2.90;99.90
17200;DHT22;8716;52.268;20.968;2023-12-28T00:28:10;2.90;99.90
17200;DHT22;8716;52.268;20.968;2023-12-28T00:30:39;2.90;99.90
17200;DHT22;8716;52.268;20.968;2023-12-28T00:33:07;2.90;99.90
17200;DHT22;8716;52.268;20.968;2023-12-28T00:35:35;2.80;99.90
17200;DHT22;8716;52.268;20.968;2023-12-28T00:38:04;2.80;99.90
17200;DHT22;8716;52.268;20.968;2023-12-28T00:40:33;2.80;99.90
17200;DHT22;8716;52.268;20.968;2023-12-28T00:43:03;2.80;99.90
17200;DHT22;8716;52.268;20.968;2023-12-28T00:45:33;2.70;99.90
17200;DHT22;8716;52.268;20.968;2023-12-28T00:48:02;2.70;99.90
17200;DHT22;8716;52.268;20.968;2023-12-28T00:50:31;2.70;99.90
17200;DHT22;8716;52.268;20.968;2023-12-28T00:52:59;2.60;99.90
17200;DHT22;8716;52.268;20.968;2023-12-28T00:55:30;2.60;99.90
17200;DHT22;8716;52.268;20.968;2023-12-28T00:57:58;2.60;99.90
17200;DHT22;8716;52.268;20.968;2023-12-28T01:00:28;2.60;99.90
17200;DHT22;8716;52.268;20.968;2023-12-28T01:02:56;2.60;99.90
17200;DHT22;8716;52.268;20.968;2023-12-28T01:05:25;2.60;99.90
17200;DHT22;8716;52.268;20.968;2023-12-28T01:07:55;2.60;99.90
17200;DHT22;8716;52.268;20.968;2023-12-28T01:10:24;2.70;99.90
17200;DHT22;8716;52.268;20.968;2023-12-28T01:12:52;2.70;99.90
17200;DHT22;8716;52.268;20.968;2023-12-28T01:15:24;2.70;99.90
17200;DHT22;8716;52.268;20.968;2023-12-28T01:17:54;2.70;99.90
17200;DHT22;8716;52.268;20.968;2023-12-28T01:20:23;2.70;99.90
17200;DHT22;8716;52.268;20.968;2023-12-28T01:22:52;2.60;99.90
17200;DHT22;8716;52.268;20.968;2023-12-28T01:25:22;2.60;99.90
17200;DHT22;8716;52.268;20.968;2023-12-28T01:27:53;2.60;99.90
17200;DHT22;8716;52.268;20.968;2023-12-28T01:30:22;2.60;99.90
17200;DHT22;8716;52.268;20.968;2023-12-28T01:32:50;2.60;99.90
17200;DHT22;8716;52.268;20.968;2023-12-28T01:35:20;2.60;99.90
17200;DHT22;8716;52.268;20.968;2023-12-28T01:37:48;2.60;99.90
17200;DHT22;8716;52.268;20.968;2023-12-28T01:40:17;2.60;99.90
17200;DHT22;8716;52.268;20.968;2023-12-28T01:42:45;2.60;99.90
17200;DHT22;8716;52.268;20.968;2023-12-28T01:45:14;2.60;99.90
17200;DHT22;8716;52.268;20.968;2023-12-28T01:47:42;2.60;99.90
17200;DHT22;8716;52.268;20.968;2023-12-28T01:50:10;2.70;99.90
17200;DHT22;8716;52.268;20.968;2023-12-28T01:52:40;2.70;99.90
17200;DHT22;8716;52.268;20.968;2023-12-28T01:55:09;2.60;99.90
17200;DHT22;8716;52.268;20.968;2023-12-28T01:57:38;2.60;99.90
17200;DHT22;8716;52.268;20.968;2023-12-28T02:00:07;2.70;99.90
17200;DHT22;8716;52.268;20.968;2023-12-28T02:02:43;2.70;99.90
17200;DHT22;8716;52.268;20.968;2023-12-28T02:05:12;2.80;99.90
17200;DHT22;8716;52.268;20.968;2023-12-28T02:07:42;2.70;99.90
17200;DHT22;8716;52.268;20.968;2023-12-28T02:10:10;2.70;99.90
17200;DHT22;8716;52.268;20.968;2023-12-28T02:12:39;2.70;99.90
17200;DHT22;8716;52.268;20.968;2023-12-28T02:15:08;2.70;99.90
17200;DHT22;8716;52.268;20.968;2023-12-28T02:17:41;2.70;99.90
17200;DHT22;8716;52.268;20.968;2023-12-28T02:20:11;2.70;99.90
17200;DHT22;8716;52.268;20.968;2023-12-28T02:22:42;2.70;99.90
17200;DHT22;8716;52.268;20.968;2023-12-28T02:25:12;2.70;99.90
17200;DHT22;8716;52.268;20.968;2023-12-28T02:27:42;2.70;99.90
17200;DHT22;8716;52.268;20.968;2023-12-28T02:30:11;2.60;99.90
17200;DHT22;8716;52.268;20.968;2023-12-28T02:32:52;2.60;99.90
17200;DHT22;8716;52.268;20.968;2023-12-28T02:35:25;2.70;99.90
17200;DHT22;8716;52.268;20.968;2023-12-28T02:37:56;2.70;99.90
17200;DHT22;8716;52.268;20.968;2023-12-28T02:40:27;2.70;99.90
17200;DHT22;8716;52.268;20.968;2023-12-28T02:42:58;2.80;99.90
17200;DHT22;8716;52.268;20.968;2023-12-28T02:45:26;2.80;99.90
17200;DHT22;8716;52.268;20.968;2023-12-28T02:47:55;2.90;99.90
17200;DHT22;8716;52.268;20.968;2023-12-28T02:50:24;2.90;99.90
17200;DHT22;8716;52.268;20.968;2023-12-28T02:52:52;2.90;99.90
17200;DHT22;8716;52.268;20.968;2023-12-28T02:55:20;2.90;99.90
17200;DHT22;8716;52.268;20.968;2023-12-28T02:57:51;2.90;99.90
17200;DHT22;8716;52.268;20.968;2023-12-28T03:00:22;2.90;99.90
17200;DHT22;8716;52.268;20.968;2023-12-28T03:02:51;2.90;99.90
17200;DHT22;8716;52.268;20.968;2023-12-28T03:05:19;3.00;99.90
17200;DHT22;8716;52.268;20.968;2023-12-28T03:07:48;2.90;99.90
17200;DHT22;8716;52.268;20.968;2023-12-28T03:10:18;2.90;99.90
17200;DHT22;8716;52.268;20.968;2023-12-28T03:12:46;2.90;99.90
17200;DHT22;8716;52.268;20.968;2023-12-28T03:15:18;2.90;99.90
17200;DHT22;8716;52.268;20.968;2023-12-28T03:17:48;2.90;99.90
17200;DHT22;8716;52.268;20.968;2023-12-28T03:20:17;3.00;99.90
17200;DHT22;8716;52.268;20.968;2023-12-28T03:22:49;3.00;99.90
17200;DHT22;8716;52.268;20.968;2023-12-28T03:25:20;3.00;99.90
17200;DHT22;8716;52.268;20.968;2023-12-28T03:27:48;3.00;99.90
17200;DHT22;8716;52.268;20.968;2023-12-28T03:30:19;3.00;99.90
17200;DHT22;8716;52.268;20.968;2023-12-28T03:32:47;3.00;99.90
17200;DHT22;8716;52.268;20.968;2023-12-28T03:35:17;3.00;99.90
17200;DHT22;8716;52.268;20.968;2023-12-28T03:37:45;3.00;99.90
17200;DHT22;8716;52.268;20.968;2023-12-28T03:40:14;3.10;99.90
17200;DHT22;8716;52.268;20.968;2023-12-28T03:42:48;3.10;99.90
17200;DHT22;8716;52.268;20.968;2023-12-28T03:45:16;3.10;99.90
17200;DHT22;8716;52.268;20.968;2023-12-28T03:47:46;3.00;99.90
17200;DHT22;8716;52.268;20.968;2023-12-28T03:50:16;3.10;99.90
17200;DHT22;8716;52.268;20.968;2023-12-28T03:52:45;3.10;99.90
17200;DHT22;8716;52.268;20.968;2023-12-28T03:55:13;3.00;99.90
17200;DHT22;8716;52.268;20.968;2023-12-28T03:57:42;3.10;99.90
17200;DHT22;8716;52.268;20.968;2023-12-28T04:00:13;3.10;99.90
17200;DHT22;8716;52.268;20.968;2023-12-28T04:02:47;3.10;99.90
17200;DHT22;8716;52.268;20.968;2023-12-28T04:05:17;3.10;99.90
17200;DHT22;8716;52.268;20.968;2023-12-28T04:07:46;3.10;99.90
17200;DHT22;8716;52.268;20.968;2023-12-28T04:10:28;3.10;99.90
17200;DHT22;8716;52.268;20.968;2023-12-28T04:12:56;3.20;99.90
17200;DHT22;8716;52.268;20.968;2023-12-28T04:15:27;3.20;99.90
17200;DHT22;8716;52.268;20.968;2023-12-28T04:17:58;3.30;99.90
17200;DHT22;8716;52.268;20.968;2023-12-28T04:20:28;3.30;99.90
17200;DHT22;8716;52.268;20.968;2023-12-28T04:22:56;3.30;99.90
17200;DHT22;8716;52.268;20.968;2023-12-28T04:25:24;3.30;99.90
17200;DHT22;8716;52.268;20.968;2023-12-28T04:27:52;3.30;99.90
17200;DHT22;8716;52.268;20.968;2023-12-28T04:30:23;3.30;99.90
17200;DHT22;8716;52.268;20.968;2023-12-28T04:32:52;3.30;99.90
17200;DHT22;8716;52.268;20.968;2023-12-28T04:35:21;3.30;99.90
17200;DHT22;8716;52.268;20.968;2023-12-28T04:37:50;3.30;99.90
17200;DHT22;8716;52.268;20.968;2023-12-28T04:40:18;3.40;99.90
17200;DHT22;8716;52.268;20.968;2023-12-28T04:42:47;3.50;99.90
17200;DHT22;8716;52.268;20.968;2023-12-28T04:45:15;3.50;99.90
17200;DHT22;8716;52.268;20.968;2023-12-28T04:47:43;3.50;99.90
17200;DHT22;8716;52.268;20.968;2023-12-28T04:50:12;3.60;99.90
17200;DHT22;8716;52.268;20.968;2023-12-28T04:52:42;3.60;99.90
17200;DHT22;8716;52.268;20.968;2023-12-28T04:55:10;3.60;99.90
17200;DHT22;8716;52.268;20.968;2023-12-28T04:57:40;3.60;99.90
17200;DHT22;8716;52.268;20.968;2023-12-28T05:00:10;3.60;99.90
17200;DHT22;8716;52.268;20.968;2023-12-28T05:02:39;3.60;99.90
17200;DHT22;8716;52.268;20.968;2023-12-28T05:05:08;3.60;99.90
17200;DHT22;8716;52.268;20.968;2023-12-28T05:07:38;3.60;99.90
17200;DHT22;8716;52.268;20.968;2023-12-28T05:10:09;3.60;99.90
17200;DHT22;8716;52.268;20.968;2023-12-28T05:12:37;3.60;99.90
17200;DHT22;8716;52.268;20.968;2023-12-28T05:15:11;3.50;99.90
17200;DHT22;8716;52.268;20.968;2023-12-28T05:17:39;3.50;99.90
17200;DHT22;8716;52.268;20.968;2023-12-28T05:20:08;3.50;99.90
17200;DHT22;8716;52.268;20.968;2023-12-28T05:22:37;3.40;99.90
17200;DHT22;8716;52.268;20.968;2023-12-28T05:25:09;3.40;99.90
17200;DHT22;8716;52.268;20.968;2023-12-28T05:27:38;3.40;99.90
17200;DHT22;8716;52.268;20.968;2023-12-28T05:30:07;3.40;99.90
17200;DHT22;8716;52.268;20.968;2023-12-28T05:32:36;3.40;99.90
17200;DHT22;8716;52.268;20.968;2023-12-28T05:35:05;3.40;99.90
17200;DHT22;8716;52.268;20.968;2023-12-28T05:37:34;3.40;99.90
17200;DHT22;8716;52.268;20.968;2023-12-28T05:40:02;3.50;99.90
17200;DHT22;8716;52.268;20.968;2023-12-28T05:42:32;3.40;99.90
17200;DHT22;8716;52.268;20.968;2023-12-28T05:45:01;3.40;99.90
17200;DHT22;8716;52.268;20.968;2023-12-28T05:47:29;3.40;99.90
17200;DHT22;8716;52.268;20.968;2023-12-28T05:49:57;3.40;99.90
17200;DHT22;8716;52.268;20.968;2023-12-28T05:52:25;3.40;99.90
17200;DHT22;8716;52.268;20.968;2023-12-28T05:54:56;3.40;99.90
17200;DHT22;8716;52.268;20.968;2023-12-28T05:57:25;3.40;99.90
17200;DHT22;8716;52.268;20.968;2023-12-28T05:59:58;3.40;99.90
17200;DHT22;8716;52.268;20.968;2023-12-28T06:02:26;3.40;99.90
17200;DHT22;8716;52.268;20.968;2023-12-28T06:04:55;3.40;99.90
17200;DHT22;8716;52.268;20.968;2023-12-28T06:07:24;3.30;99.90
17200;DHT22;8716;52.268;20.968;2023-12-28T06:09:52;3.30;99.90
17200;DHT22;8716;52.268;20.968;2023-12-28T06:12:21;3.40;99.90
17200;DHT22;8716;52.268;20.968;2023-12-28T06:14:49;3.30;99.90
17200;DHT22;8716;52.268;20.968;2023-12-28T06:17:18;3.30;99.90
17200;DHT22;8716;52.268;20.968;2023-12-28T06:19:47;3.30;99.90
17200;DHT22;8716;52.268;20.968;2023-12-28T06:22:17;3.30;99.90
17200;DHT22;8716;52.268;20.968;2023-12-28T06:24:45;3.30;99.90
17200;DHT22;8716;52.268;20.968;2023-12-28T06:27:13;3.30;99.90
17200;DHT22;8716;52.268;20.968;2023-12-28T06:29:41;3.30;99.90
17200;DHT22;8716;52.268;20.968;2023-12-28T06:32:10;3.20;99.90
17200;DHT22;8716;52.268;20.968;2023-12-28T06:34:39;3.20;99.90
17200;DHT22;8716;52.268;20.968;2023-12-28T06:37:08;3.10;99.90
17200;DHT22;8716;52.268;20.968;2023-12-28T06:39:36;3.20;99.90
17200;DHT22;8716;52.268;20.968;2023-12-28T06:42:04;3.20;99.90
17200;DHT22;8716;52.268;20.968;2023-12-28T06:44:33;3.20;99.90
17200;DHT22;8716;52.268;20.968;2023-12-28T06:47:01;3.20;99.90
17200;DHT22;8716;52.268;20.968;2023-12-28T06:49:29;3.10;99.90
17200;DHT22;8716;52.268;20.968;2023-12-28T06:51:59;3.10;99.90
17200;DHT22;8716;52.268;20.968;2023-12-28T06:54:27;3.10;99.90
17200;DHT22;8716;52.268;20.968;2023-12-28T06:56:55;3.10;99.90
17200;DHT22;8716;52.268;20.968;2023-12-28T06:59:24;3.10;99.90
17200;DHT22;8716;52.268;20.968;2023-12-28T07:01:52;3.10;99.90
17200;DHT22;8716;52.268;20.968;2023-12-28T07:04:20;3.10;99.90
17200;DHT22;8716;52.268;20.968;2023-12-28T07:06:49;3.20;99.90
17200;DHT22;8716;52.268;20.968;2023-12-28T07:09:19;3.20;99.90
17200;DHT22;8716;52.268;20.968;2023-12-28T07:11:47;3.20;99.90
17200;DHT22;8716;52.268;20.968;2023-12-28T07:14:15;3.20;99.90
17200;DHT22;8716;52.268;20.968;2023-12-28T07:16:43;3.20;99.90
17200;DHT22;8716;52.268;20.968;2023-12-28T07:19:12;3.30;99.90
17200;DHT22;8716;52.268;20.968;2023-12-28T07:21:40;3.30;99.90
17200;DHT22;8716;52.268;20.968;2023-12-28T07:24:09;3.40;99.90
17200;DHT22;8716;52.268;20.968;2023-12-28T07:26:38;3.40;99.90
17200;DHT22;8716;52.268;20.968;2023-12-28T07:29:06;3.40;99.90
17200;DHT22;8716;52.268;20.968;2023-12-28T07:31:35;3.40;99.90
17200;DHT22;8716;52.268;20.968;2023-12-28T07:34:04;3.50;99.90
17200;DHT22;8716;52.268;20.968;2023-12-28T07:36:33;3.50;99.90
17200;DHT22;8716;52.268;20.968;2023-12-28T07:39:01;3.50;99.90
17200;DHT22;8716;52.268;20.968;2023-12-28T07:41:30;3.60;99.90
17200;DHT22;8716;52.268;20.968;2023-12-28T07:43:59;3.70;99.90
17200;DHT22;8716;52.268;20.968;2023-12-28T07:46:28;3.70;99.90
17200;DHT22;8716;52.268;20.968;2023-12-28T07:48:56;3.90;99.90
17200;DHT22;8716;52.268;20.968;2023-12-28T07:51:24;3.90;99.90
17200;DHT22;8716;52.268;20.968;2023-12-28T07:53:52;3.90;99.90
17200;DHT22;8716;52.268;20.968;2023-12-28T07:56:21;4.00;99.90
17200;DHT22;8716;52.268;20.968;2023-12-28T07:58:49;4.00;99.90
17200;DHT22;8716;52.268;20.968;2023-12-28T08:01:19;4.10;99.90
17200;DHT22;8716;52.268;20.968;2023-12-28T08:03:48;4.20;99.90
17200;DHT22;8716;52.268;20.968;2023-12-28T08:06:16;4.30;99.90
17200;DHT22;8716;52.268;20.968;2023-12-28T08:08:44;4.40;99.90
17200;DHT22;8716;52.268;20.968;2023-12-28T08:11:12;4.50;99.90
17200;DHT22;8716;52.268;20.968;2023-12-28T08:13:41;4.50;99.90
17200;DHT22;8716;52.268;20.968;2023-12-28T08:16:09;4.50;99.90
17200;DHT22;8716;52.268;20.968;2023-12-28T08:18:38;4.60;99.90
17200;DHT22;8716;52.268;20.968;2023-12-28T08:21:07;4.60;99.90
17200;DHT22;8716;52.268;20.968;2023-12-28T08:23:35;4.60;99.90
17200;DHT22;8716;52.268;20.968;2023-12-28T08:26:03;4.80;99.90
17200;DHT22;8716;52.268;20.968;2023-12-28T08:28:34;4.80;99.90
17200;DHT22;8716;52.268;20.968;2023-12-28T08:31:02;4.90;99.90
17200;DHT22;8716;52.268;20.968;2023-12-28T08:33:30;4.90;99.90
17200;DHT22;8716;52.268;20.968;2023-12-28T08:36:00;5.00;99.90
17200;DHT22;8716;52.268;20.968;2023-12-28T08:38:28;5.00;99.90
17200;DHT22;8716;52.268;20.968;2023-12-28T08:40:56;5.10;99.90
17200;DHT22;8716;52.268;20.968;2023-12-28T08:43:25;5.20;99.90
17200;DHT22;8716;52.268;20.968;2023-12-28T08:45:53;5.30;99.90
17200;DHT22;8716;52.268;20.968;2023-12-28T08:48:22;5.40;99.90
17200;DHT22;8716;52.268;20.968;2023-12-28T08:50:51;5.50;99.90
17200;DHT22;8716;52.268;20.968;2023-12-28T08:53:20;5.60;99.90
17200;DHT22;8716;52.268;20.968;2023-12-28T08:55:48;5.70;99.90
17200;DHT22;8716;52.268;20.968;2023-12-28T08:58:18;5.80;99.90
17200;DHT22;8716;52.268;20.968;2023-12-28T09:00:46;5.90;99.90
17200;DHT22;8716;52.268;20.968;2023-12-28T09:03:16;6.10;99.90
17200;DHT22;8716;52.268;20.968;2023-12-28T09:05:45;6.20;99.90
17200;DHT22;8716;52.268;20.968;2023-12-28T09:08:14;6.30;99.90
17200;DHT22;8716;52.268;20.968;2023-12-28T09:10:44;6.40;99.90
17200;DHT22;8716;52.268;20.968;2023-12-28T09:13:16;6.60;99.90
17200;DHT22;8716;52.268;20.968;2023-12-28T09:15:45;6.70;99.90
17200;DHT22;8716;52.268;20.968;2023-12-28T09:18:14;6.80;99.90
17200;DHT22;8716;52.268;20.968;2023-12-28T09:20:42;7.00;99.90
17200;DHT22;8716;52.268;20.968;2023-12-28T09:23:11;7.20;99.90
17200;DHT22;8716;52.268;20.968;2023-12-28T09:25:40;7.30;99.90
17200;DHT22;8716;52.268;20.968;2023-12-28T09:28:09;7.40;99.90
17200;DHT22;8716;52.268;20.968;2023-12-28T09:30:38;7.50;99.90
17200;DHT22;8716;52.268;20.968;2023-12-28T09:33:06;7.60;99.90
17200;DHT22;8716;52.268;20.968;2023-12-28T09:35:35;7.70;99.90
17200;DHT22;8716;52.268;20.968;2023-12-28T09:38:03;7.80;99.90
17200;DHT22;8716;52.268;20.968;2023-12-28T09:40:32;7.80;99.90
17200;DHT22;8716;52.268;20.968;2023-12-28T09:43:06;7.90;99.90
17200;DHT22;8716;52.268;20.968;2023-12-28T09:45:37;8.00;99.90
17200;DHT22;8716;52.268;20.968;2023-12-28T09:48:23;8.00;99.90
17200;DHT22;8716;52.268;20.968;2023-12-28T09:50:53;8.10;99.90
17200;DHT22;8716;52.268;20.968;2023-12-28T09:53:22;8.10;99.90
17200;DHT22;8716;52.268;20.968;2023-12-28T09:55:53;8.10;99.90
17200;DHT22;8716;52.268;20.968;2023-12-28T09:58:22;8.20;99.90
17200;DHT22;8716;52.268;20.968;2023-12-28T10:00:51;8.20;99.90
17200;DHT22;8716;52.268;20.968;2023-12-28T10:03:20;8.10;99.90
17200;DHT22;8716;52.268;20.968;2023-12-28T10:05:48;8.10;99.90
17200;DHT22;8716;52.268;20.968;2023-12-28T10:08:17;8.10;99.90
17200;DHT22;8716;52.268;20.968;2023-12-28T10:10:45;8.20;99.90
17200;DHT22;8716;52.268;20.968;2023-12-28T10:13:18;8.20;99.90
17200;DHT22;8716;52.268;20.968;2023-12-28T10:15:46;8.20;99.90
17200;DHT22;8716;52.268;20.968;2023-12-28T10:18:18;8.30;99.90
17200;DHT22;8716;52.268;20.968;2023-12-28T10:20:51;8.30;99.90
17200;DHT22;8716;52.268;20.968;2023-12-28T10:23:20;8.30;99.90
17200;DHT22;8716;52.268;20.968;2023-12-28T10:25:50;8.30;99.90
17200;DHT22;8716;52.268;20.968;2023-12-28T10:28:20;8.30;99.90
17200;DHT22;8716;52.268;20.968;2023-12-28T10:30:54;8.40;99.90
17200;DHT22;8716;52.268;20.968;2023-12-28T10:33:25;8.40;99.90
17200;DHT22;8716;52.268;20.968;2023-12-28T10:35:55;8.40;99.90
17200;DHT22;8716;52.268;20.968;2023-12-28T10:38:28;8.40;99.90
17200;DHT22;8716;52.268;20.968;2023-12-28T10:41:03;8.40;99.90
17200;DHT22;8716;52.268;20.968;2023-12-28T10:43:37;8.40;99.90
17200;DHT22;8716;52.268;20.968;2023-12-28T10:46:09;8.40;99.90
17200;DHT22;8716;52.268;20.968;2023-12-28T10:48:41;8.40;99.90
17200;DHT22;8716;52.268;20.968;2023-12-28T10:51:14;8.50;99.90
17200;DHT22;8716;52.268;20.968;2023-12-28T10:53:49;8.50;99.90
17200;DHT22;8716;52.268;20.968;2023-12-28T10:56:31;8.60;99.90
17200;DHT22;8716;52.268;20.968;2023-12-28T10:59:09;8.60;99.90
17200;DHT22;8716;52.268;20.968;2023-12-28T11:01:40;8.60;99.90
17200;DHT22;8716;52.268;20.968;2023-12-28T11:04:20;8.60;99.90
17200;DHT22;8716;52.268;20.968;2023-12-28T11:06:51;8.60;99.90
17200;DHT22;8716;52.268;20.968;2023-12-28T11:09:20;8.60;99.90
17200;DHT22;8716;52.268;20.968;2023-12-28T11:11:51;8.60;99.90
17200;DHT22;8716;52.268;20.968;2023-12-28T11:14:22;8.60;99.90
17200;DHT22;8716;52.268;20.968;2023-12-28T11:16:51;8.60;99.90
17200;DHT22;8716;52.268;20.968;2023-12-28T11:19:21;8.60;99.90
17200;DHT22;8716;52.268;20.968;2023-12-28T11:21:51;8.60;99.90
17200;DHT22;8716;52.268;20.968;2023-12-28T11:24:20;8.60;99.90
17200;DHT22;8716;52.268;20.968;2023-12-28T11:26:52;8.50;99.90
17200;DHT22;8716;52.268;20.968;2023-12-28T11:29:22;8.50;99.90
17200;DHT22;8716;52.268;20.968;2023-12-28T11:31:54;8.50;99.90
17200;DHT22;8716;52.268;20.968;2023-12-28T11:34:26;8.50;99.90
17200;DHT22;8716;52.268;20.968;2023-12-28T11:36:57;8.40;99.90
17200;DHT22;8716;52.268;20.968;2023-12-28T11:39:30;8.40;99.90
17200;DHT22;8716;52.268;20.968;2023-12-28T11:42:01;8.30;99.90
17200;DHT22;8716;52.268;20.968;2023-12-28T11:44:30;8.30;99.90
17200;DHT22;8716;52.268;20.968;2023-12-28T11:46:58;8.30;99.90
17200;DHT22;8716;52.268;20.968;2023-12-28T11:49:28;8.30;99.90
17200;DHT22;8716;52.268;20.968;2023-12-28T11:51:57;8.40;99.90
17200;DHT22;8716;52.268;20.968;2023-12-28T11:54:27;8.30;99.90
17200;DHT22;8716;52.268;20.968;2023-12-28T11:56:55;8.30;99.90
17200;DHT22;8716;52.268;20.968;2023-12-28T11:59:24;8.30;99.90
17200;DHT22;8716;52.268;20.968;2023-12-28T12:01:53;8.30;99.90
17200;DHT22;8716;52.268;20.968;2023-12-28T12:04:21;8.30;99.90
17200;DHT22;8716;52.268;20.968;2023-12-28T12:06:51;8.30;99.90
17200;DHT22;8716;52.268;20.968;2023-12-28T12:09:20;8.40;99.90
17200;DHT22;8716;52.268;20.968;2023-12-28T12:11:51;8.40;99.90
17200;DHT22;8716;52.268;20.968;2023-12-28T12:14:20;8.40;99.90
17200;DHT22;8716;52.268;20.968;2023-12-28T12:16:49;8.40;99.90
17200;DHT22;8716;52.268;20.968;2023-12-28T12:19:22;8.40;99.90
17200;DHT22;8716;52.268;20.968;2023-12-28T12:21:54;8.50;99.90
17200;DHT22;8716;52.268;20.968;2023-12-28T12:24:23;8.50;99.90
17200;DHT22;8716;52.268;20.968;2023-12-28T12:26:52;8.50;99.90
17200;DHT22;8716;52.268;20.968;2023-12-28T12:29:20;8.50;99.90
17200;DHT22;8716;52.268;20.968;2023-12-28T12:31:56;8.50;99.90
17200;DHT22;8716;52.268;20.968;2023-12-28T12:34:24;8.50;99.90
17200;DHT22;8716;52.268;20.968;2023-12-28T12:36:54;8.60;99.90
17200;DHT22;8716;52.268;20.968;2023-12-28T12:39:25;8.60;99.90
17200;DHT22;8716;52.268;20.968;2023-12-28T12:41:54;8.60;99.90
17200;DHT22;8716;52.268;20.968;2023-12-28T12:44:24;8.60;99.90
17200;DHT22;8716;52.268;20.968;2023-12-28T12:46:58;8.60;99.90
17200;DHT22;8716;52.268;20.968;2023-12-28T12:49:27;8.60;99.90
17200;DHT22;8716;52.268;20.968;2023-12-28T12:51:56;8.70;99.90
17200;DHT22;8716;52.268;20.968;2023-12-28T12:54:30;8.60;99.90
17200;DHT22;8716;52.268;20.968;2023-12-28T12:56:58;8.60;99.90
17200;DHT22;8716;52.268;20.968;2023-12-28T12:59:27;8.60;99.90
17200;DHT22;8716;52.268;20.968;2023-12-28T13:01:55;8.70;99.90
17200;DHT22;8716;52.268;20.968;2023-12-28T13:04:23;8.80;99.90
17200;DHT22;8716;52.268;20.968;2023-12-28T13:06:52;8.70;99.90
17200;DHT22;8716;52.268;20.968;2023-12-28T13:09:21;8.80;99.90
17200;DHT22;8716;52.268;20.968;2023-12-28T13:11:50;8.80;99.90
17200;DHT22;8716;52.268;20.968;2023-12-28T13:14:19;8.80;99.90
17200;DHT22;8716;52.268;20.968;2023-12-28T13:16:47;8.80;99.90
17200;DHT22;8716;52.268;20.968;2023-12-28T13:19:24;8.80;99.90
17200;DHT22;8716;52.268;20.968;2023-12-28T13:21:55;8.80;99.90
17200;DHT22;8716;52.268;20.968;2023-12-28T13:24:25;8.80;99.90
17200;DHT22;8716;52.268;20.968;2023-12-28T13:26:53;8.80;99.90
17200;DHT22;8716;52.268;20.968;2023-12-28T13:29:21;8.80;99.90
17200;DHT22;8716;52.268;20.968;2023-12-28T13:31:50;8.80;99.90
17200;DHT22;8716;52.268;20.968;2023-12-28T13:34:18;8.90;99.90
17200;DHT22;8716;52.268;20.968;2023-12-28T13:36:47;8.80;99.90
17200;DHT22;8716;52.268;20.968;2023-12-28T13:39:15;8.90;99.90
17200;DHT22;8716;52.268;20.968;2023-12-28T13:41:46;8.90;99.90
17200;DHT22;8716;52.268;20.968;2023-12-28T13:44:14;8.90;99.90
17200;DHT22;8716;52.268;20.968;2023-12-28T13:46:42;8.90;99.90
17200;DHT22;8716;52.268;20.968;2023-12-28T13:49:10;8.90;99.90
17200;DHT22;8716;52.268;20.968;2023-12-28T13:51:38;8.80;99.90
17200;DHT22;8716;52.268;20.968;2023-12-28T13:54:06;8.90;99.90
17200;DHT22;8716;52.268;20.968;2023-12-28T13:56:35;8.90;99.90
17200;DHT22;8716;52.268;20.968;2023-12-28T13:59:04;9.00;99.90
17200;DHT22;8716;52.268;20.968;2023-12-28T14:01:33;9.00;99.90
17200;DHT22;8716;52.268;20.968;2023-12-28T14:04:01;9.00;99.90
17200;DHT22;8716;52.268;20.968;2023-12-28T14:06:30;9.00;99.90
17200;DHT22;8716;52.268;20.968;2023-12-28T14:08:59;9.00;99.90
17200;DHT22;8716;52.268;20.968;2023-12-28T14:11:27;9.00;99.90
17200;DHT22;8716;52.268;20.968;2023-12-28T14:13:55;8.90;99.90
17200;DHT22;8716;52.268;20.968;2023-12-28T14:16:25;9.00;99.90
17200;DHT22;8716;52.268;20.968;2023-12-28T14:18:54;9.00;99.90
17200;DHT22;8716;52.268;20.968;2023-12-28T14:21:22;9.00;99.90
17200;DHT22;8716;52.268;20.968;2023-12-28T14:23:51;9.00;99.90
17200;DHT22;8716;52.268;20.968;2023-12-28T14:26:21;9.00;99.90
17200;DHT22;8716;52.268;20.968;2023-12-28T14:28:50;9.00;99.90
17200;DHT22;8716;52.268;20.968;2023-12-28T14:31:19;9.00;99.90
17200;DHT22;8716;52.268;20.968;2023-12-28T14:33:49;9.00;99.90
17200;DHT22;8716;52.268;20.968;2023-12-28T14:36:27;9.00;99.90
17200;DHT22;8716;52.268;20.968;2023-12-28T14:38:55;9.00;99.90
17200;DHT22;8716;52.268;20.968;2023-12-28T14:41:24;9.00;99.90
17200;DHT22;8716;52.268;20.968;2023-12-28T14:43:53;9.00;99.90
17200;DHT22;8716;52.268;20.968;2023-12-28T14:46:21;9.00;99.90
17200;DHT22;8716;52.268;20.968;2023-12-28T14:48:51;9.10;99.90
17200;DHT22;8716;52.268;20.968;2023-12-28T14:51:19;9.10;99.90
17200;DHT22;8716;52.268;20.968;2023-12-28T14:53:49;9.10;99.90
17200;DHT22;8716;52.268;20.968;2023-12-28T14:56:17;9.10;99.90
17200;DHT22;8716;52.268;20.968;2023-12-28T14:58:46;9.10;99.90
17200;DHT22;8716;52.268;20.968;2023-12-28T15:01:15;9.20;99.90
17200;DHT22;8716;52.268;20.968;2023-12-28T15:03:43;9.10;99.90
17200;DHT22;8716;52.268;20.968;2023-12-28T15:06:13;9.20;99.90
17200;DHT22;8716;52.268;20.968;2023-12-28T15:08:41;9.10;99.90
17200;DHT22;8716;52.268;20.968;2023-12-28T15:11:10;9.10;99.90
17200;DHT22;8716;52.268;20.968;2023-12-28T15:13:39;9.00;99.90
17200;DHT22;8716;52.268;20.968;2023-12-28T15:16:09;9.00;99.90
17200;DHT22;8716;52.268;20.968;2023-12-28T15:18:37;9.00;99.90
17200;DHT22;8716;52.268;20.968;2023-12-28T15:21:08;8.90;99.90
17200;DHT22;8716;52.268;20.968;2023-12-28T15:23:38;8.90;99.90
17200;DHT22;8716;52.268;20.968;2023-12-28T15:26:06;8.90;99.90
17200;DHT22;8716;52.268;20.968;2023-12-28T15:28:35;8.80;99.90
17200;DHT22;8716;52.268;20.968;2023-12-28T15:31:06;8.90;99.90
17200;DHT22;8716;52.268;20.968;2023-12-28T15:33:34;8.80;99.90
17200;DHT22;8716;52.268;20.968;2023-12-28T15:36:03;8.80;99.90
17200;DHT22;8716;52.268;20.968;2023-12-28T15:38:31;8.80;99.90
17200;DHT22;8716;52.268;20.968;2023-12-28T15:41:01;8.70;99.90
17200;DHT22;8716;52.268;20.968;2023-12-28T15:43:29;8.70;99.90
17200;DHT22;8716;52.268;20.968;2023-12-28T15:45:58;8.70;99.90
17200;DHT22;8716;52.268;20.968;2023-12-28T15:48:27;8.70;99.90
17200;DHT22;8716;52.268;20.968;2023-12-28T15:50:56;8.60;99.90
17200;DHT22;8716;52.268;20.968;2023-12-28T15:53:25;8.60;99.90
17200;DHT22;8716;52.268;20.968;2023-12-28T15:55:53;8.60;99.90
17200;DHT22;8716;52.268;20.968;2023-12-28T15:58:40;8.60;99.90